Time;durP1;ratioP1;P1;durP2;ratioP2;P2;SDS_P1;SDS_P2;PMS_P1;PMS_P2;Temp;Humidity;BMP_temperature;BMP_pressure;BME280_temperature;BME280_humidity;BME280_pressure;Samples;Min_cycle;Max_cycle;Signal;HPM_P1;HPM_P2
2022/06/14 00:01:58;;;;;;;6.37;5.37;;;;;;;21.57;59.04;99847.57;1800037;78;21110;-71
2022/06/14 00:04:25;;;;;;;7.20;5.30;;;;;;;21.52;59.26;99847.27;1800871;78;21069;-71
2022/06/14 00:06:52;;;;;;;5.90;5.00;;;;;;;21.46;59.48;99845.94;1798835;77;21134;-72
2022/06/14 00:09:19;;;;;;;6.10;5.17;;;;;;;21.42;59.83;99847.74;1809684;78;20987;-72
2022/06/14 00:11:48;;;;;;;6.50;5.23;;;;;;;21.37;60.24;99845.30;1800330;78;21050;-72
2022/06/14 00:14:19;;;;;;;6.93;5.30;;;;;;;21.33;60.50;99848.45;1792452;79;21619;-72
2022/06/14 00:16:45;;;;;;;7.40;4.97;;;;;;;21.27;60.78;99845.98;1783079;79;21049;-72
2022/06/14 00:19:11;;;;;;;8.07;5.27;;;;;;;21.23;60.91;99841.59;1807918;78;21564;-72
2022/06/14 00:21:39;;;;;;;6.77;5.13;;;;;;;21.17;61.15;99843.76;1810701;78;21030;-71
2022/06/14 00:24:06;;;;;;;7.43;5.40;;;;;;;21.12;61.36;99833.70;1783180;78;21030;-72
2022/06/14 00:26:33;;;;;;;5.83;5.30;;;;;;;21.07;61.64;99829.31;1806776;78;21193;-72
2022/06/14 00:29:00;;;;;;;6.67;5.60;;;;;;;21.03;62.15;99831.14;1798242;78;21030;-72
2022/06/14 00:31:27;;;;;;;5.93;5.30;;;;;;;20.97;62.59;99825.73;1817951;78;21510;-71
2022/06/14 00:33:53;;;;;;;5.50;4.87;;;;;;;20.91;63.02;99833.89;1796057;78;21034;-71
2022/06/14 00:36:32;;;;;;;7.33;5.60;;;;;;;20.85;63.21;99830.62;1816034;78;21078;-71
2022/06/14 00:39:04;;;;;;;7.10;5.57;;;;;;;20.79;63.29;99825.98;1771270;78;21960;-71
2022/06/14 00:41:39;;;;;;;;;;;;;;;20.73;63.60;99823.86;1793718;79;21101;-70
2022/06/14 00:44:19;;;;;;;6.17;5.10;;;;;;;20.68;63.94;99822.75;1792691;79;20178;-72
2022/06/14 00:47:05;;;;;;;6.37;4.97;;;;;;;20.60;64.25;99821.19;1795118;78;21565;-70
2022/06/14 00:49:57;;;;;;;6.40;5.73;;;;;;;20.56;64.52;99820.84;1821286;78;21513;-72
2022/06/14 00:52:38;;;;;;;7.63;5.90;;;;;;;20.51;64.79;99818.37;1752133;79;21115;-71
2022/06/14 00:55:16;;;;;;;6.17;5.55;;;;;;;20.48;65.08;99819.03;1794441;79;21081;-71
2022/06/14 00:57:52;;;;;;;7.57;6.00;;;;;;;20.46;65.30;99812.56;1786466;79;21090;-71
2022/06/14 01:00:23;;;;;;;6.60;5.40;;;;;;;20.44;65.48;99816.78;1809016;78;21062;-72
2022/06/14 01:02:52;;;;;;;6.55;5.83;;;;;;;20.41;65.60;99808.75;1793785;79;21398;-70
2022/06/14 01:08:24;;;;;;;6.00;5.40;;;;;;;20.36;65.66;99814.39;1802467;78;21042;-71
2022/06/14 01:10:50;;;;;;;6.53;5.33;;;;;;;20.31;65.53;99808.64;1817764;78;21065;-72
2022/06/14 01:13:18;;;;;;;6.87;5.23;;;;;;;20.29;65.33;99810.11;1801069;78;21081;-72
2022/06/14 01:15:44;;;;;;;7.70;5.53;;;;;;;20.29;65.08;99807.39;1791703;79;21564;-72
2022/06/14 01:18:13;;;;;;;7.00;5.20;;;;;;;20.30;65.12;99808.42;1813210;78;22159;-71
2022/06/14 01:20:41;;;;;;;6.87;5.23;;;;;;;20.29;65.10;99804.11;1803374;78;21041;-72
2022/06/14 01:23:11;;;;;;;6.50;4.80;;;;;;;20.28;65.16;99809.89;1803032;78;21058;-72
2022/06/14 01:25:45;;;;;;;8.60;4.87;;;;;;;20.26;65.37;99811.57;1784774;78;21026;-72
2022/06/14 01:28:14;;;;;;;6.07;5.07;;;;;;;20.29;65.42;99806.04;1802505;78;21541;-72
2022/06/14 01:30:45;;;;;;;5.87;4.80;;;;;;;20.30;65.32;99801.65;1766989;79;22390;-72
2022/06/14 01:33:20;;;;;;;6.95;5.12;;;;;;;20.34;65.32;99806.61;1785539;79;21026;-72
2022/06/14 01:35:55;;;;;;;6.60;5.40;;;;;;;20.37;65.14;99805.14;1773371;79;21103;-72
2022/06/14 01:38:23;;;;;;;5.27;4.77;;;;;;;20.38;65.00;99804.80;1782611;78;21082;-72
2022/06/14 01:41:14;;;;;;;5.60;4.97;;;;;;;20.40;65.05;99805.83;1773900;79;21141;-71
2022/06/14 01:44:08;;;;;;;7.87;5.40;;;;;;;20.42;65.01;99805.47;1797065;79;22025;-72
2022/06/14 01:47:04;;;;;;;7.20;5.13;;;;;;;20.44;64.92;99800.50;1795524;79;21058;-72
2022/06/14 01:52:34;;;;;;;5.90;5.30;;;;;;;20.43;65.25;99802.97;1805253;79;21135;-72
2022/06/14 01:55:23;;;;;;;7.30;5.53;;;;;;;20.41;65.17;99801.97;1793824;79;21026;-71
2022/06/14 01:58:19;;;;;;;6.40;5.80;;;;;;;20.40;65.19;99803.11;1790110;79;21646;-71
2022/06/14 02:01:23;;;;;;;6.90;5.40;;;;;;;20.37;65.26;99801.86;1795011;79;21517;-72
2022/06/14 02:07:24;;;;;;;8.47;5.43;;;;;;;20.30;65.40;99797.58;1793770;79;21033;-71
2022/06/14 02:10:14;;;;;;;6.33;5.67;;;;;;;20.25;65.53;99795.09;1791692;79;22431;-72
2022/06/14 02:13:13;;;;;;;6.37;5.35;;;;;;;20.20;65.57;99799.37;1795099;79;21014;-72
2022/06/14 02:15:49;;;;;;;6.60;5.57;;;;;;;20.15;65.67;99793.63;1794734;79;21124;-72
2022/06/14 02:18:43;;;;;;;8.03;5.70;;;;;;;20.11;65.57;99790.58;1795135;79;21037;-71
2022/06/14 02:21:21;;;;;;;7.00;5.23;;;;;;;20.08;65.53;99795.33;1796134;79;21109;-71
2022/06/14 02:23:54;;;;;;;7.43;5.90;;;;;;;19.97;65.84;99788.19;1794627;79;21147;-71
2022/06/14 02:26:28;;;;;;;6.67;5.47;;;;;;;19.91;66.06;99793.06;1792608;79;21802;-71
2022/06/14 02:29:40;;;;;;;6.43;5.77;;;;;;;19.85;66.21;99790.91;1793209;79;21395;-71
2022/06/14 02:32:28;;;;;;;7.60;5.63;;;;;;;19.80;66.19;99789.77;1802250;78;20995;-72
2022/06/14 02:35:15;;;;;;;6.43;5.47;;;;;;;19.76;66.11;99791.01;1795114;79;21464;-71
2022/06/14 02:37:50;;;;;;;6.67;5.73;;;;;;;19.72;66.02;99792.03;1795946;78;21545;-71
2022/06/14 02:40:31;;;;;;;8.80;6.07;;;;;;;19.70;66.05;99787.50;1785210;79;21223;-71
2022/06/14 02:43:03;;;;;;;6.60;5.90;;;;;;;19.67;66.04;99791.09;1818900;77;21117;-71
2022/06/14 02:45:35;;;;;;;6.47;5.70;;;;;;;19.66;66.12;99791.45;1784232;79;21086;-71
2022/06/14 02:48:17;;;;;;;7.80;6.13;;;;;;;19.66;66.32;99790.09;1817511;78;21066;-71
2022/06/14 02:50:51;;;;;;;6.30;5.67;;;;;;;19.68;66.38;99788.64;1781290;79;21506;-72
2022/06/14 02:53:32;;;;;;;6.23;5.63;;;;;;;19.72;66.59;99788.75;1812704;78;21646;-71
2022/06/14 02:56:04;;;;;;;6.50;5.67;;;;;;;19.73;66.67;99793.03;1797776;79;21002;-71
2022/06/14 02:58:37;;;;;;;8.23;5.97;;;;;;;19.75;66.84;99786.73;1797543;79;21092;-71
2022/06/14 03:01:10;;;;;;;7.67;5.97;;;;;;;19.81;66.95;99784.02;1795678;79;21022;-71
2022/06/14 03:03:43;;;;;;;10.85;7.10;;;;;;;19.88;66.98;99778.05;1815788;78;21085;-71
2022/06/14 03:06:36;;;;;;;7.50;6.20;;;;;;;19.96;67.06;99779.84;1818669;78;21195;-72
2022/06/14 03:09:13;;;;;;;7.10;6.33;;;;;;;20.07;67.10;99776.10;1817752;78;21002;-71
2022/06/14 03:12:07;;;;;;;7.67;6.53;;;;;;;20.18;67.11;99776.46;1796161;77;21034;-72
2022/06/14 03:15:31;;;;;;;8.07;5.80;;;;;;;20.28;67.08;99778.14;1813302;78;21428;-71
2022/06/14 03:18:34;;;;;;;8.93;5.93;;;;;;;20.41;66.87;99778.13;1817469;78;20959;-71
2022/06/14 03:21:21;;;;;;;9.23;5.83;;;;;;;20.53;66.58;99778.93;1793896;78;21554;-71
2022/06/14 03:23:56;;;;;;;7.20;5.67;;;;;;;20.67;66.21;99775.84;1813477;78;21027;-71
2022/06/14 03:26:58;;;;;;;6.50;5.90;;;;;;;20.80;66.06;99775.23;1818111;78;21104;-69
2022/06/14 03:29:36;;;;;;;6.10;5.43;;;;;;;20.90;65.92;99773.39;1814428;77;21000;-71
2022/06/14 03:32:24;;;;;;;10.13;6.03;;;;;;;20.98;65.67;99777.08;1782134;77;21124;-71
2022/06/14 03:35:02;;;;;;;7.40;5.03;;;;;;;21.07;65.40;99770.94;1818357;77;21912;-70
2022/06/14 03:37:29;;;;;;;5.30;4.53;;;;;;;21.16;64.76;99775.66;1817897;78;21043;-70
2022/06/14 03:40:07;;;;;;;6.20;4.77;;;;;;;21.26;63.45;99770.29;1816685;77;21229;-71
2022/06/14 03:42:41;;;;;;;6.73;4.33;;;;;;;21.36;61.87;99761.66;1816989;78;20987;-73
2022/06/14 03:45:11;;;;;;;4.70;4.20;;;;;;;21.49;60.39;99765.09;1817181;78;21105;-71
2022/06/14 03:47:37;;;;;;;5.90;4.67;;;;;;;21.60;59.27;99766.14;1788503;78;21501;-71
2022/06/14 03:50:12;;;;;;;5.20;4.37;;;;;;;21.67;58.83;99770.39;1816097;78;20948;-71
2022/06/14 03:53:01;;;;;;;7.50;4.60;;;;;;;21.40;58.92;99774.76;1815131;78;21082;-71
2022/06/14 03:56:00;;;;;;;5.20;4.70;;;;;;;21.46;58.83;99778.02;1817842;78;21114;-69
2022/06/14 03:58:41;;;;;;;6.00;4.57;;;;;;;21.95;56.16;99813.80;1774723;78;21497;-71
2022/06/14 04:01:14;;;;;;;5.83;5.10;;;;;;;22.08;55.52;99818.58;1816499;78;21627;-72
2022/06/14 04:04:28;;;;;;;6.37;5.17;;;;;;;22.10;55.51;99820.36;1817492;78;21030;-71
2022/06/14 04:07:12;;;;;;;5.47;4.90;;;;;;;22.14;55.53;99823.16;1818225;78;21686;-71
2022/06/14 04:10:05;;;;;;;5.23;4.73;;;;;;;22.16;54.83;99814.12;1817393;78;21308;-72
2022/06/14 04:12:52;;;;;;;5.77;4.70;;;;;;;22.22;54.47;99820.88;1796133;78;21067;-73
2022/06/14 04:15:52;;;;;;;6.37;4.60;;;;;;;22.29;54.28;99829.20;1816588;78;21262;-71
2022/06/14 04:18:40;;;;;;;5.97;4.62;;;;;;;22.44;54.18;99822.13;1793089;79;21065;-72
2022/06/14 04:21:46;;;;;;;5.00;4.30;;;;;;;22.59;52.33;99819.17;1819646;78;20943;-72
2022/06/14 04:24:35;;;;;;;5.27;4.30;;;;;;;22.67;52.30;99818.98;1815993;78;21014;-71
2022/06/14 04:27:14;;;;;;;5.83;4.73;;;;;;;22.79;52.58;99823.48;1817646;78;21557;-71
2022/06/14 04:30:15;;;;;;;7.00;4.87;;;;;;;22.92;51.92;99833.67;1814298;78;21285;-71
2022/06/14 04:32:57;;;;;;;;;;;;;;;23.02;51.54;99839.94;1791098;78;21452;-71
2022/06/14 04:35:49;;;;;;;5.97;4.70;;;;;;;23.11;51.71;99845.19;1811519;78;20161;-72
2022/06/14 04:38:33;;;;;;;7.50;4.97;;;;;;;23.20;50.95;99849.04;1813142;78;21066;-71
2022/06/14 04:41:15;;;;;;;6.65;5.12;;;;;;;23.27;50.70;99850.56;1818034;78;21011;-71
2022/06/14 04:43:56;;;;;;;7.65;5.70;;;;;;;23.30;50.74;99858.80;1810410;78;22054;-71
2022/06/14 04:46:33;;;;;;;11.60;6.33;;;;;;;23.33;50.62;99861.36;1816002;77;21069;-71
2022/06/14 04:49:17;;;;;;;9.53;6.37;;;;;;;23.30;49.84;99877.09;1818938;78;21128;-70
2022/06/14 04:51:54;;;;;;;12.50;6.67;;;;;;;23.30;50.28;99892.08;1816623;78;21022;-71
2022/06/14 04:54:28;;;;;;;12.77;7.03;;;;;;;23.23;49.50;99877.74;1816827;78;21109;-71
2022/06/14 04:57:29;;;;;;;10.97;7.23;;;;;;;23.14;50.26;99896.23;1787463;78;21171;-72
2022/06/14 05:00:09;;;;;;;14.53;7.00;;;;;;;22.97;50.60;99902.88;1813269;77;22355;-72
2022/06/14 05:02:49;;;;;;;13.35;6.72;;;;;;;22.67;51.65;99914.25;1817964;78;21063;-70
2022/06/14 05:05:42;;;;;;;10.27;7.47;;;;;;;22.46;51.82;99905.00;1814335;77;21489;-72
2022/06/14 05:08:24;;;;;;;10.00;6.83;;;;;;;22.30;52.32;99932.78;1813613;77;21518;-73
2022/06/14 05:10:58;;;;;;;10.30;6.93;;;;;;;22.17;52.35;99921.20;1815857;78;22461;-72
2022/06/14 05:14:08;;;;;;;12.90;7.00;;;;;;;22.14;53.24;99941.48;1813570;77;21003;-73
2022/06/14 05:16:45;;;;;;;10.63;6.80;;;;;;;22.10;53.69;99938.67;1810167;77;21007;-74
2022/06/14 05:19:25;;;;;;;8.90;5.50;;;;;;;22.04;54.03;99936.55;1815078;77;21035;-74
2022/06/14 05:22:08;;;;;;;15.90;5.77;;;;;;;21.94;54.07;99969.13;1814688;77;21038;-73
2022/06/14 05:24:35;;;;;;;6.93;4.80;;;;;;;21.81;54.97;99945.85;1810477;78;21096;-75
2022/06/14 05:27:25;;;;;;;10.77;5.30;;;;;;;21.63;55.38;99958.39;1814260;78;21046;-74
2022/06/14 05:30:13;;;;;;;8.77;4.97;;;;;;;21.45;55.60;99967.38;1788237;77;21030;-73
2022/06/14 05:33:12;;;;;;;7.90;4.77;;;;;;;21.29;56.20;99977.38;1811963;77;21414;-73
2022/06/14 05:36:01;;;;;;;9.10;4.73;;;;;;;21.21;56.65;99991.30;1810976;77;21565;-73
2022/06/14 05:38:36;;;;;;;6.83;4.20;;;;;;;21.14;56.92;99976.16;1813199;78;21416;-72
2022/06/14 05:41:08;;;;;;;7.17;4.50;;;;;;;21.08;57.84;99995.16;1815646;78;20963;-73
2022/06/14 05:43:48;;;;;;;6.40;4.00;;;;;;;21.05;58.27;100006.70;1817711;79;21054;-73
2022/06/14 05:46:25;;;;;;;10.77;3.77;;;;;;;21.03;58.17;100014.41;1816812;78;21703;-73
2022/06/14 05:48:56;;;;;;;6.87;3.53;;;;;;;21.03;57.99;100021.20;1799754;77;21034;-74
2022/06/14 05:51:31;;;;;;;6.97;3.30;;;;;;;21.03;58.58;100019.84;1813909;77;24983;-73
2022/06/14 05:54:03;;;;;;;5.73;3.50;;;;;;;21.05;58.13;100018.35;1815745;77;21098;-73
2022/06/14 05:56:41;;;;;;;6.10;3.30;;;;;;;21.04;57.34;100020.06;1817470;78;21011;-74
2022/06/14 05:59:31;;;;;;;4.87;3.07;;;;;;;21.05;56.99;100023.00;1817991;78;20983;-75
2022/06/14 06:02:17;;;;;;;5.30;2.57;;;;;;;21.20;56.65;100035.89;1816967;78;21502;-78
2022/06/14 06:05:04;;;;;;;6.20;2.90;;;;;;;21.40;55.95;100039.63;1803289;78;21118;-77
2022/06/14 06:07:34;;;;;;;6.77;3.07;;;;;;;21.49;55.45;100059.89;1816804;78;20983;-74
2022/06/14 06:10:06;;;;;;;4.73;3.13;;;;;;;21.49;55.81;100038.95;1817025;78;21506;-74
2022/06/14 06:12:41;;;;;;;;;;;;;;;21.51;56.40;100040.73;1819515;78;21082;-76
2022/06/14 06:15:26;;;;;;;5.70;3.17;;;;;;;21.51;56.79;100055.68;1812361;78;20187;-75
2022/06/14 06:17:57;;;;;;;4.60;2.90;;;;;;;21.48;56.62;100075.95;1812518;78;21139;-76
2022/06/14 06:20:43;;;;;;;5.17;3.30;;;;;;;21.39;56.68;100060.34;1814126;78;21522;-77
2022/06/14 06:23:21;;;;;;;6.67;2.87;;;;;;;21.40;57.00;100075.52;1815675;78;21007;-83
2022/06/14 06:25:52;;;;;;;4.50;2.83;;;;;;;21.41;55.64;100078.45;1787326;78;21081;-75
2022/06/14 06:28:35;;;;;;;8.17;2.93;;;;;;;21.37;55.74;100067.48;1816461;78;20983;-75
2022/06/14 06:31:20;;;;;;;4.47;2.80;;;;;;;21.31;55.79;100080.47;1818364;79;21622;-75
2022/06/14 06:33:51;;;;;;;4.70;2.27;;;;;;;21.31;56.30;100066.88;1817261;78;20998;-76
2022/06/14 06:36:49;;;;;;;4.50;2.20;;;;;;;21.40;56.27;100085.03;1816295;78;21487;-74
2022/06/14 06:39:52;;;;;;;2.93;1.90;;;;;;;21.43;54.93;100087.07;1813731;78;20983;-75
2022/06/14 06:42:54;;;;;;;3.67;2.40;;;;;;;21.39;54.44;100086.14;1781809;79;22177;-75
2022/06/14 06:45:24;;;;;;;3.97;1.80;;;;;;;21.31;55.17;100100.05;1797402;78;21769;-77
2022/06/14 06:48:13;;;;;;;4.05;2.08;;;;;;;21.29;55.16;100115.34;1798261;79;21011;-76
2022/06/14 06:50:45;;;;;;;3.90;1.90;;;;;;;21.25;55.19;100119.06;1781755;79;21027;-75
2022/06/14 06:53:16;;;;;;;2.55;1.80;;;;;;;21.18;55.12;100127.77;1780621;79;20987;-75
2022/06/14 06:56:08;;;;;;;2.60;1.80;;;;;;;21.13;55.64;100122.58;1798593;79;21109;-79
2022/06/14 06:58:49;;;;;;;4.07;1.77;;;;;;;21.11;55.82;100125.41;1774610;79;21265;-78
2022/06/14 07:01:31;;;;;;;4.63;1.70;;;;;;;20.99;55.60;100130.23;1783952;79;21617;-74
2022/06/14 07:04:18;;;;;;;5.12;1.77;;;;;;;20.80;57.21;100162.80;1797455;79;21056;-74
2022/06/14 07:06:53;;;;;;;4.07;1.50;;;;;;;20.50;59.64;100166.70;1778028;80;21066;-74
2022/06/14 07:09:44;;;;;;;4.33;2.00;;;;;;;19.96;61.81;100149.83;1792776;79;21106;-74
2022/06/14 07:12:21;;;;;;;2.33;1.77;;;;;;;19.54;63.89;100154.36;1794950;79;21103;-72
2022/06/14 07:15:06;;;;;;;2.23;1.70;;;;;;;19.12;65.32;100158.30;1791459;79;21576;-73
2022/06/14 07:17:39;;;;;;;2.33;1.70;;;;;;;18.80;67.04;100149.63;1793016;79;22357;-72
2022/06/14 07:20:17;;;;;;;3.30;1.83;;;;;;;18.58;68.58;100159.25;1793265;79;21631;-73
2022/06/14 07:22:56;;;;;;;3.47;2.13;;;;;;;18.45;69.64;100169.91;1791674;79;21558;-73
2022/06/14 07:25:28;;;;;;;4.80;2.80;;;;;;;18.37;70.48;100180.19;1795451;79;21129;-74
2022/06/14 07:28:02;;;;;;;2.83;2.33;;;;;;;18.32;70.94;100190.36;1794973;79;21431;-74
2022/06/14 07:30:47;;;;;;;3.10;2.30;;;;;;;18.31;71.68;100192.27;1795711;79;21069;-73
2022/06/14 07:33:16;;;;;;;3.93;2.57;;;;;;;18.34;71.58;100193.55;1784280;79;21083;-74
2022/06/14 07:35:51;;;;;;;3.73;2.40;;;;;;;18.24;71.03;100218.98;1785767;79;20991;-75
2022/06/14 07:38:40;;;;;;;4.23;2.50;;;;;;;17.87;72.30;100207.64;1797320;79;21049;-73
2022/06/14 07:41:28;;;;;;;4.50;2.87;;;;;;;17.80;72.66;100204.57;1795248;79;21034;-75
2022/06/14 07:44:09;;;;;;;4.33;2.63;;;;;;;17.91;72.81;100209.94;1796724;79;21050;-73
2022/06/14 07:47:00;;;;;;;4.17;2.50;;;;;;;18.39;71.60;100219.86;1796922;79;20950;-75
2022/06/14 07:49:34;;;;;;;4.93;2.93;;;;;;;18.57;70.98;100223.37;1731048;79;21080;-73
2022/06/14 07:52:22;;;;;;;4.03;2.90;;;;;;;18.72;70.29;100241.88;1795250;79;21519;-74
2022/06/14 07:54:51;;;;;;;3.97;2.50;;;;;;;18.82;68.92;100229.11;1795077;79;21120;-74
2022/06/14 07:57:23;;;;;;;3.00;2.37;;;;;;;18.88;68.22;100235.39;1796315;79;20987;-74
2022/06/14 07:59:57;;;;;;;3.67;2.22;;;;;;;19.01;67.15;100244.45;1795752;79;21033;-73
2022/06/14 08:02:35;;;;;;;3.60;2.57;;;;;;;19.19;65.88;100238.45;1793325;79;21006;-73
2022/06/14 08:05:13;;;;;;;2.60;2.27;;;;;;;19.34;64.21;100241.98;1793123;79;21831;-74
2022/06/14 08:07:40;;;;;;;3.20;2.10;;;;;;;19.46;62.83;100262.98;1795176;79;21086;-74
2022/06/14 08:10:19;;;;;;;2.80;1.93;;;;;;;19.61;62.60;100257.58;1794984;79;21085;-74
2022/06/14 08:12:59;;;;;;;4.15;2.10;;;;;;;19.73;61.31;100241.47;1793961;79;21721;-73
2022/06/14 08:15:36;;;;;;;4.33;2.37;;;;;;;19.94;60.86;100240.73;1791984;79;21697;-73
2022/06/14 08:18:15;;;;;;;2.67;1.90;;;;;;;20.23;60.37;100242.06;1795259;79;21140;-73
2022/06/14 08:20:55;;;;;;;3.03;1.90;;;;;;;20.53;58.41;100243.39;1794930;79;20991;-73
2022/06/14 08:23:40;;;;;;;3.93;2.07;;;;;;;20.68;57.04;100252.30;1795876;78;20987;-72
2022/06/14 08:26:33;;;;;;;2.93;1.60;;;;;;;20.77;56.24;100245.45;1795747;79;20986;-74
2022/06/14 08:29:15;;;;;;;3.00;1.70;;;;;;;20.87;55.26;100261.90;1795270;79;21569;-73
2022/06/14 08:31:54;;;;;;;2.90;1.90;;;;;;;20.90;54.55;100250.37;1716820;79;21179;-73
2022/06/14 08:34:38;;;;;;;3.37;1.80;;;;;;;21.00;54.55;100254.81;1794819;79;21153;-74
2022/06/14 08:37:13;;;;;;;4.07;1.50;;;;;;;21.15;52.99;100247.16;1795346;79;21054;-73
2022/06/14 08:39:56;;;;;;;3.13;1.70;;;;;;;21.37;51.38;100251.43;1792444;79;21034;-73
2022/06/14 08:42:38;;;;;;;2.73;1.57;;;;;;;21.60;51.54;100258.59;1794724;79;21097;-74
2022/06/14 08:45:25;;;;;;;2.72;1.80;;;;;;;21.76;50.08;100258.16;1795985;79;21131;-76
2022/06/14 08:48:03;;;;;;;4.10;1.67;;;;;;;21.74;49.61;100246.82;1793878;79;21065;-74
2022/06/14 08:50:41;;;;;;;3.07;2.00;;;;;;;21.72;49.92;100256.69;1754790;79;21041;-75
2022/06/14 08:53:26;;;;;;;4.57;2.20;;;;;;;21.76;49.88;100248.64;1794492;79;21041;-74
2022/06/14 08:56:23;;;;;;;2.80;1.60;;;;;;;21.86;50.31;100251.48;1794722;79;21464;-74
2022/06/14 08:58:55;;;;;;;3.33;1.80;;;;;;;22.06;49.90;100256.56;1793383;79;21156;-73
2022/06/14 09:01:46;;;;;;;3.03;1.63;;;;;;;22.22;48.72;100250.68;1794978;79;21022;-73
2022/06/14 09:05:02;;;;;;;2.03;1.30;;;;;;;22.24;48.51;100245.13;1754745;79;20967;-74
2022/06/14 09:08:05;;;;;;;3.07;1.53;;;;;;;22.22;47.06;100238.44;1796752;79;21045;-74
2022/06/14 09:10:59;;;;;;;2.57;1.27;;;;;;;22.07;47.11;100252.12;1795939;79;21119;-74
2022/06/14 09:13:46;;;;;;;3.50;1.50;;;;;;;21.92;46.02;100259.64;1794856;79;21730;-72
2022/06/14 09:16:47;;;;;;;3.40;1.30;;;;;;;21.81;46.41;100262.56;1794309;78;20990;-76
2022/06/14 09:19:38;;;;;;;2.23;1.23;;;;;;;21.71;46.11;100267.88;1797386;79;21074;-74
2022/06/14 09:22:56;;;;;;;5.55;1.40;;;;;;;21.70;45.53;100273.89;1795496;79;21104;-74
2022/06/14 09:26:10;;;;;;;4.80;1.73;;;;;;;21.78;45.90;100275.73;1794612;78;21021;-73
2022/06/14 09:29:01;;;;;;;4.13;1.60;;;;;;;21.85;44.84;100269.72;1795109;79;21110;-74
2022/06/14 09:31:42;;;;;;;2.17;1.20;;;;;;;21.86;44.46;100275.38;1794589;79;21030;-72
2022/06/14 09:34:54;;;;;;;3.92;1.72;;;;;;;21.86;45.20;100271.30;1795328;79;21121;-74
2022/06/14 09:38:14;;;;;;;4.37;1.50;;;;;;;22.00;44.89;100281.83;1795486;79;21085;-74
2022/06/14 09:41:30;;;;;;;2.60;1.30;;;;;;;22.09;44.61;100279.00;1795198;79;21042;-74
2022/06/14 09:44:41;;;;;;;2.83;1.20;;;;;;;22.27;45.40;100274.13;1779620;79;21157;-75
2022/06/14 09:47:21;;;;;;;5.22;1.80;;;;;;;22.47;44.22;100281.34;1795308;78;21109;-73
2022/06/14 09:50:08;;;;;;;4.73;1.90;;;;;;;22.60;44.02;100277.45;1793660;79;21077;-74
2022/06/14 09:53:15;;;;;;;2.73;1.50;;;;;;;22.66;42.76;100266.55;1796562;79;22398;-74
2022/06/14 09:56:09;;;;;;;3.87;2.30;;;;;;;22.70;42.52;100285.16;1794650;79;20995;-75
2022/06/14 09:59:08;;;;;;;4.00;1.73;;;;;;;22.57;43.01;100279.50;1795958;79;21193;-74
2022/06/14 10:02:00;;;;;;;2.70;1.70;;;;;;;22.38;43.50;100288.86;1794022;79;20951;-75
2022/06/14 10:05:02;;;;;;;3.20;1.90;;;;;;;22.20;43.98;100286.38;1797744;79;20986;-75
2022/06/14 10:08:05;;;;;;;2.97;2.00;;;;;;;22.14;44.24;100305.95;1779489;79;21085;-75
2022/06/14 10:10:40;;;;;;;5.43;1.93;;;;;;;22.05;44.29;100299.86;1797198;79;20998;-76
2022/06/14 10:13:39;;;;;;;3.37;1.80;;;;;;;21.98;43.75;100293.06;1774907;79;21265;-74
2022/06/14 10:16:51;;;;;;;2.77;1.57;;;;;;;22.08;43.66;100309.49;1796423;79;21011;-74
2022/06/14 10:19:49;;;;;;;4.43;1.87;;;;;;;22.34;43.33;100297.47;1796415;79;21047;-73
2022/06/14 10:22:47;;;;;;;5.13;1.73;;;;;;;22.46;43.10;100294.73;1780327;79;21046;-74
2022/06/14 10:28:11;;;;;;;3.40;1.67;;;;;;;22.43;43.28;100299.50;1785068;79;21493;-74
2022/06/14 10:28:20;;;;;;;2.63;1.60;;;;;;;22.42;43.07;100300.07;1795607;79;21187;-74
2022/06/14 10:31:10;;;;;;;2.80;1.87;;;;;;;22.35;43.50;100303.16;1793394;79;21065;-75
2022/06/14 10:33:59;;;;;;;3.67;1.80;;;;;;;22.27;42.92;100313.58;1797930;79;20947;-76
2022/06/14 10:36:50;;;;;;;2.73;1.50;;;;;;;22.16;43.19;100311.89;1767282;79;21094;-74
2022/06/14 10:39:37;;;;;;;2.33;1.40;;;;;;;22.09;42.02;100300.77;1792184;79;20998;-74
2022/06/14 10:42:29;;;;;;;4.77;1.47;;;;;;;22.10;40.98;100298.26;1791115;78;21704;-73
2022/06/14 10:45:17;;;;;;;3.10;1.70;;;;;;;22.16;41.11;100301.02;1729468;81;21568;-73
2022/06/14 10:48:15;;;;;;;3.07;1.37;;;;;;;22.24;41.12;100314.50;1789979;79;21691;-74
2022/06/14 10:51:12;;;;;;;3.73;1.50;;;;;;;22.33;41.31;100294.53;1792905;78;21065;-74
2022/06/14 10:54:11;;;;;;;3.10;1.60;;;;;;;22.41;40.83;100280.02;1795599;79;21006;-73
2022/06/14 10:57:13;;;;;;;2.37;1.50;;;;;;;22.57;41.79;100276.77;1697351;82;21571;-73
2022/06/14 11:00:05;;;;;;;;;;;;;;;22.67;40.34;100287.20;1797894;79;22196;-73
2022/06/14 11:02:46;;;;;;;2.70;1.57;;;;;;;22.63;40.70;100267.23;1790091;79;20155;-73
2022/06/14 11:05:35;;;;;;;3.00;1.70;;;;;;;22.66;40.63;100269.84;1817192;78;21046;-72
2022/06/14 11:08:39;;;;;;;3.67;1.60;;;;;;;22.73;41.06;100265.95;1797440;79;21096;-74
2022/06/14 11:11:53;;;;;;;3.17;1.70;;;;;;;22.90;41.14;100264.86;1779021;79;21888;-74
2022/06/14 11:14:39;;;;;;;2.95;1.67;;;;;;;23.07;39.90;100265.97;1792933;78;20927;-74
2022/06/14 11:17:30;;;;;;;2.97;1.60;;;;;;;23.24;39.15;100265.44;1815258;78;21038;-74
2022/06/14 11:20:08;;;;;;;2.52;1.60;;;;;;;23.34;38.89;100262.19;1812371;78;21537;-74
2022/06/14 11:22:41;;;;;;;2.97;1.60;;;;;;;23.44;39.18;100260.87;1819910;78;21074;-73
2022/06/14 11:25:22;;;;;;;3.87;1.63;;;;;;;23.58;38.54;100259.86;1820740;78;21799;-73
2022/06/14 11:28:18;;;;;;;2.37;1.40;;;;;;;23.67;38.78;100256.39;1817877;78;21070;-74
2022/06/14 11:31:17;;;;;;;3.87;1.70;;;;;;;23.81;38.29;100250.52;1810943;78;21434;-74
2022/06/14 11:34:13;;;;;;;3.87;1.70;;;;;;;24.00;38.56;100249.79;1787567;80;21030;-74
2022/06/14 11:37:03;;;;;;;3.53;1.70;;;;;;;24.20;38.07;100251.98;1788129;78;21545;-73
2022/06/14 11:39:42;;;;;;;2.07;1.40;;;;;;;24.22;37.50;100260.59;1807508;78;21013;-74
2022/06/14 11:42:36;;;;;;;3.20;1.60;;;;;;;24.25;38.11;100250.33;1793341;79;20992;-73
2022/06/14 11:45:14;;;;;;;3.70;1.73;;;;;;;24.30;37.25;100230.95;1797310;79;21386;-73
2022/06/14 11:48:21;;;;;;;3.77;1.70;;;;;;;24.41;36.85;100249.73;1788749;79;21062;-73
2022/06/14 11:51:36;;;;;;;2.23;1.60;;;;;;;24.47;37.07;100249.67;1779284;78;37312;-74
2022/06/14 11:54:25;;;;;;;2.67;1.63;;;;;;;24.38;36.43;100246.91;1792797;78;21091;-74
2022/06/14 11:57:09;;;;;;;4.97;2.30;;;;;;;24.22;36.95;100246.95;1805264;79;21836;-74
2022/06/14 12:00:25;;;;;;;4.67;1.73;;;;;;;24.06;37.52;100247.80;1793802;78;20959;-74
2022/06/14 12:03:18;;;;;;;2.93;1.73;;;;;;;24.02;37.92;100255.66;1787522;78;21556;-72
2022/06/14 12:05:52;;;;;;;3.73;1.90;;;;;;;23.95;38.17;100267.20;1798894;79;21353;-75
2022/06/14 12:08:45;;;;;;;5.07;1.93;;;;;;;23.80;38.49;100262.00;1799347;79;21220;-73
2022/06/14 12:11:43;;;;;;;6.33;2.07;;;;;;;23.75;38.91;100260.89;1796007;78;20955;-73
2022/06/14 12:14:42;;;;;;;4.33;2.00;;;;;;;23.86;38.61;100246.16;1798662;79;21014;-74
2022/06/14 12:17:46;;;;;;;3.63;2.00;;;;;;;24.03;37.72;100250.45;1830033;78;21122;-73
2022/06/14 12:20:25;;;;;;;3.57;2.13;;;;;;;24.11;37.50;100251.59;1790994;78;21202;-72
2022/06/14 12:23:08;;;;;;;3.37;1.90;;;;;;;24.09;36.55;100262.67;1770818;80;21211;-74
2022/06/14 12:29:05;;;;;;;5.20;2.03;;;;;;;23.72;36.87;100268.41;1770924;78;20983;-73
2022/06/14 12:31:40;;;;;;;3.87;1.80;;;;;;;23.55;37.29;100261.35;1789731;79;21525;-74
2022/06/14 12:34:25;;;;;;;3.17;1.93;;;;;;;23.56;38.02;100265.69;1798384;79;21002;-74
2022/06/14 12:37:12;;;;;;;3.57;1.90;;;;;;;23.68;35.69;100255.27;1777355;78;21112;-74
2022/06/14 12:39:48;;;;;;;3.37;1.80;;;;;;;23.78;34.94;100254.73;1794837;79;21059;-74
2022/06/14 12:42:43;;;;;;;5.27;1.90;;;;;;;23.94;35.01;100243.81;1795653;79;21073;-74
2022/06/14 12:45:20;;;;;;;5.27;1.80;;;;;;;24.11;33.94;100244.77;1794821;79;21031;-74
2022/06/14 12:48:24;;;;;;;4.57;1.97;;;;;;;24.21;33.58;100244.01;1794750;79;21189;-74
2022/06/14 12:51:11;;;;;;;4.13;1.90;;;;;;;24.25;34.20;100255.24;1793018;78;22108;-73
2022/06/14 12:54:02;;;;;;;4.70;1.90;;;;;;;24.35;33.77;100252.52;1794713;78;20939;-74
2022/06/14 12:56:53;;;;;;;3.97;2.03;;;;;;;24.26;33.33;100247.84;1794349;79;21078;-73
2022/06/14 12:59:58;;;;;;;4.45;1.90;;;;;;;24.19;33.74;100252.56;1792994;78;21081;-72
2022/06/14 13:02:39;;;;;;;4.30;1.70;;;;;;;24.15;33.64;100261.22;1792108;78;21081;-73